YPEA weather

RAAF Base Pearce
Bullsbrook, Western Australia, Australia

Public forecast

Using degrees Celsius for public forecast. Weather courtesy of forecast.io.

METAR (pilot weather report)

Retrieved 2019/04/23 00:30 UTC (0 seconds ago):

YPEA 230030Z 09004KT 060V150 CAVOK 18/06 Q1025 NOSIG

TAF (pilot weather forecast)

Forecast is more than 12 hours old.

Retrieved 2019/04/22 00:00 UTC (1 day ago):

TAF YPEA 222208Z 2300/2318 08008KT CAVOK FM230700 17005KT CAVOK